createdAt,value
2022-09-28T00:04:16.273Z,1.00
2022-09-28T00:09:48.142Z,1.00
2022-09-28T00:15:19.997Z,1.00
2022-09-28T00:20:51.986Z,1.00
2022-09-28T00:26:23.897Z,1.00
2022-09-28T00:31:55.471Z,1.00
2022-09-28T00:37:27.662Z,1.00
2022-09-28T00:42:59.302Z,1.00
2022-09-28T00:54:00.502Z,1.00
2022-09-28T00:59:32.168Z,0.00
2022-09-28T01:10:33.590Z,0.00
2022-09-28T01:21:35.067Z,1.00
2022-09-28T01:27:06.708Z,1.00
2022-09-28T01:32:38.462Z,1.00
2022-09-28T01:38:10.473Z,1.00
2022-09-28T01:49:11.495Z,0.00
2022-09-28T01:54:43.289Z,1.00
2022-09-28T02:05:44.707Z,1.00
2022-09-28T02:13:37.693Z,1.00
2022-09-28T02:24:39.012Z,1.00
2022-09-28T02:30:10.805Z,0.00
2022-09-28T02:35:42.757Z,1.00
2022-09-28T02:41:14.538Z,0.00
2022-09-28T02:46:46.345Z,1.00
2022-09-28T02:52:18.310Z,1.00
2022-09-28T02:57:51.525Z,1.00
2022-09-28T03:03:23.147Z,1.00
2022-09-28T03:08:54.648Z,1.00
2022-09-28T03:14:26.319Z,1.00
2022-09-28T03:19:57.852Z,1.00
2022-09-28T03:25:29.652Z,1.00
2022-09-28T03:31:01.449Z,1.00
2022-09-28T03:36:33.338Z,2.00
2022-09-28T03:42:05.306Z,1.00
2022-09-28T03:47:36.954Z,1.00
2022-09-28T03:53:08.338Z,1.00
2022-09-28T03:58:39.848Z,0.00
2022-09-28T04:04:11.515Z,1.00
2022-09-28T04:09:43.577Z,1.00
2022-09-28T04:15:15.172Z,2.00
2022-09-28T04:20:46.707Z,1.00
2022-09-28T04:26:18.311Z,0.00
2022-09-28T04:31:50.175Z,1.00
2022-09-28T04:37:21.906Z,3.00
2022-09-28T04:42:53.811Z,5.00
2022-09-28T04:48:25.575Z,11.00
2022-09-28T04:53:57.255Z,21.00
2022-09-28T05:05:00.761Z,102.00
2022-09-28T05:10:32.048Z,185.00
2022-09-28T05:16:05.577Z,209.00
2022-09-28T05:21:35.031Z,309.00
2022-09-28T05:27:06.550Z,1089.00
2022-09-28T05:32:37.891Z,1443.00
2022-09-28T05:38:09.647Z,1545.00
2022-09-28T05:43:41.400Z,1357.00
2022-09-28T05:49:12.734Z,2116.00
2022-09-28T05:54:44.064Z,2346.00
2022-09-28T06:00:16.223Z,3670.00
2022-09-28T06:05:47.485Z,4218.00
2022-09-28T06:11:19.053Z,3649.00
2022-09-28T06:16:50.798Z,2853.00
2022-09-28T06:22:22.027Z,2470.00
2022-09-28T06:27:53.630Z,3056.00
2022-09-28T06:33:25.125Z,3768.00
2022-09-28T06:38:56.957Z,4812.00
2022-09-28T06:44:28.736Z,4656.00
2022-09-28T06:50:00.054Z,10381.00
2022-09-28T06:55:32.003Z,9534.00
2022-09-28T07:01:03.879Z,6985.00
2022-09-28T07:06:35.613Z,7223.00
2022-09-28T07:12:07.386Z,9800.00
2022-09-28T07:17:52.488Z,8924.00
2022-09-28T07:23:18.960Z,9376.00
2022-09-28T07:28:42.312Z,10133.00
2022-09-28T07:34:14.148Z,11263.00
2022-09-28T07:39:46.221Z,14121.00
2022-09-28T07:45:17.762Z,14932.00
2022-09-28T07:50:49.524Z,12933.00
2022-09-28T07:56:21.549Z,13978.00
2022-09-28T08:01:53.314Z,14984.00
2022-09-28T08:07:25.111Z,14872.00
2022-09-28T08:12:59.280Z,17499.00
2022-09-28T08:18:28.753Z,13776.00
2022-09-28T08:24:00.557Z,12656.00
2022-09-28T08:29:32.128Z,15917.00
2022-09-28T08:35:03.822Z,18176.00
2022-09-28T08:40:35.878Z,22625.00
2022-09-28T08:46:07.437Z,20128.00
2022-09-28T08:51:39.095Z,16849.00
2022-09-28T08:57:10.822Z,7137.00
2022-09-28T09:02:42.650Z,9088.00
2022-09-28T09:08:14.337Z,12143.00
2022-09-28T09:13:46.161Z,16341.00
2022-09-28T09:24:49.623Z,17694.00
2022-09-28T09:30:21.532Z,17929.00
2022-09-28T09:35:53.307Z,17471.00
2022-09-28T09:41:25.210Z,21159.00
2022-09-28T09:46:56.946Z,18286.00
2022-09-28T09:52:28.802Z,20208.00
2022-09-28T09:54:52.439Z,18092.00
2022-09-28T10:00:24.183Z,23674.00
2022-09-28T10:05:55.572Z,21430.00
2022-09-28T10:11:27.032Z,19670.00
2022-09-28T10:16:58.979Z,18577.00
2022-09-28T10:22:30.468Z,20352.00
2022-09-28T10:28:02.165Z,19463.00
2022-09-28T10:33:33.784Z,18504.00
2022-09-28T10:39:05.672Z,19116.00
2022-09-28T10:44:37.469Z,20228.00
2022-09-28T10:50:09.335Z,22718.00
2022-09-28T10:55:41.215Z,20735.00
2022-09-28T11:01:13.082Z,18945.00
2022-09-28T11:06:44.695Z,18406.00
2022-09-28T11:12:16.488Z,16440.00
2022-09-28T11:17:48.123Z,23338.00
2022-09-28T11:23:20.056Z,21820.00
2022-09-28T11:28:51.777Z,21275.00
2022-09-28T11:34:31.364Z,19463.00
2022-09-28T11:39:55.315Z,23163.00
2022-09-28T11:45:26.655Z,19651.00
2022-09-28T11:50:58.057Z,16812.00
2022-09-28T11:56:29.906Z,23028.00
2022-09-28T12:07:31.237Z,15292.00
2022-09-28T12:15:25.088Z,22713.00
2022-09-28T12:20:57.553Z,22951.00
2022-09-28T12:26:28.677Z,23600.00
2022-09-28T12:32:00.352Z,20407.00
2022-09-28T12:39:58.137Z,20032.00
2022-09-28T12:45:24.449Z,18845.00
2022-09-28T12:50:57.857Z,16227.00
2022-09-28T12:56:28.107Z,14100.00
2022-09-28T13:01:59.963Z,14792.00
2022-09-28T13:07:31.747Z,17775.00
2022-09-28T13:13:03.591Z,16038.00
2022-09-28T13:18:35.380Z,14513.00
2022-09-28T13:24:27.789Z,14570.00
2022-09-28T13:35:10.412Z,23943.00
2022-09-28T13:40:42.261Z,21732.00
2022-09-28T13:46:14.039Z,20055.00
2022-09-28T13:51:45.810Z,19883.00
2022-09-28T13:57:17.793Z,17293.00
2022-09-28T14:02:49.620Z,18126.00
2022-09-28T14:08:21.153Z,14728.00
2022-09-28T14:13:52.609Z,13132.00
2022-09-28T14:19:24.479Z,15783.00
2022-09-28T14:24:56.309Z,14369.00
2022-09-28T14:30:28.089Z,13736.00
2022-09-28T14:35:59.594Z,13041.00
2022-09-28T14:41:31.204Z,11282.00
2022-09-28T14:47:02.930Z,9706.00
2022-09-28T14:52:34.541Z,10244.00
2022-09-28T14:58:06.697Z,13290.00
2022-09-28T15:03:38.708Z,12661.00
2022-09-28T15:09:10.165Z,10479.00
2022-09-28T15:14:41.767Z,11117.00
2022-09-28T15:20:13.308Z,10011.00
2022-09-28T15:25:45.712Z,8851.00
2022-09-28T15:31:17.541Z,6962.00
2022-09-28T15:36:49.189Z,6423.00
2022-09-28T15:42:20.855Z,6541.00
2022-09-28T15:47:52.803Z,6242.00
2022-09-28T15:58:53.689Z,4945.00
2022-09-28T16:04:25.276Z,4380.00
2022-09-28T16:15:26.739Z,3244.00
2022-09-28T16:20:58.622Z,2880.00
2022-09-28T16:26:30.228Z,1821.00
2022-09-28T16:32:02.410Z,1612.00
2022-09-28T16:37:34.166Z,1604.00
2022-09-28T16:43:06.186Z,676.00
2022-09-28T16:48:38.270Z,436.00
2022-09-28T16:54:09.710Z,299.00
2022-09-28T16:59:41.557Z,180.00
2022-09-28T17:05:13.953Z,113.00
2022-09-28T17:11:09.802Z,73.00
2022-09-28T17:16:17.735Z,33.00
2022-09-28T17:21:49.521Z,13.00
2022-09-28T17:27:21.160Z,7.00
2022-09-28T17:32:52.874Z,5.00
2022-09-28T17:38:24.670Z,3.00
2022-09-28T17:46:17.305Z,4.00
2022-09-28T17:51:49.125Z,3.00
2022-09-28T17:57:20.553Z,4.00
2022-09-28T18:02:52.248Z,4.00
2022-09-28T18:08:24.294Z,4.00
2022-09-28T18:13:55.902Z,4.00
2022-09-28T18:19:31.925Z,4.00
2022-09-28T18:24:59.490Z,3.00
2022-09-28T18:30:31.219Z,3.00
2022-09-28T18:41:32.319Z,4.00
2022-09-28T18:47:03.921Z,4.00
2022-09-28T18:58:04.612Z,3.00
2022-09-28T19:03:36.461Z,3.00
2022-09-28T19:14:37.502Z,4.00
2022-09-28T19:20:09.221Z,4.00
2022-09-28T19:31:10.411Z,4.00
2022-09-28T19:36:41.696Z,2.00
2022-09-28T19:42:13.615Z,3.00
2022-09-28T19:47:45.513Z,4.00
2022-09-28T19:58:46.918Z,3.00
2022-09-28T20:04:18.648Z,2.00
2022-09-28T20:09:50.169Z,3.00
2022-09-28T20:15:22.359Z,4.00
2022-09-28T20:20:53.952Z,2.00
2022-09-28T20:39:45.395Z,2.00
2022-09-28T20:45:17.267Z,2.00
2022-09-28T20:50:48.950Z,3.00
2022-09-28T20:56:21.412Z,3.00
2022-09-28T21:01:53.238Z,3.00
2022-09-28T21:07:25.052Z,2.00
2022-09-28T21:12:57.079Z,2.00
2022-09-28T21:18:28.786Z,2.00
2022-09-28T21:24:00.516Z,2.00
2022-09-28T21:29:32.619Z,3.00
2022-09-28T21:40:36.017Z,4.00
2022-09-28T21:46:07.792Z,2.00
2022-09-28T21:51:39.757Z,1.00
2022-09-28T22:02:40.788Z,1.00
2022-09-28T22:13:44.443Z,1.00
2022-09-28T22:19:16.330Z,0.00
2022-09-28T22:30:17.240Z,1.00
2022-09-28T22:35:48.806Z,1.00
2022-09-28T22:41:20.391Z,0.00
2022-09-28T22:46:52.207Z,1.00
2022-09-28T23:03:25.333Z,1.00
2022-09-28T23:08:57.201Z,1.00
2022-09-28T23:14:28.867Z,1.00
2022-09-28T23:20:01.093Z,1.00
2022-09-28T23:25:32.608Z,0.00
2022-09-28T23:31:03.958Z,1.00
2022-09-28T23:36:35.332Z,0.00
2022-09-28T23:42:07.055Z,1.00
2022-09-28T23:47:38.926Z,1.00
2022-09-28T23:53:10.830Z,1.00
2022-09-28T23:58:42.595Z,0.00
